createdAt,value
2017-12-24T00:00:08.954Z,0
2017-12-24T00:00:49.514Z,0
2017-12-24T00:01:30.077Z,0
2017-12-24T00:02:10.631Z,0
2017-12-24T00:02:51.163Z,0
2017-12-24T00:03:31.726Z,0
2017-12-24T00:04:12.243Z,0
2017-12-24T00:04:52.799Z,0
2017-12-24T00:05:33.333Z,0
2017-12-24T00:06:13.885Z,0
2017-12-24T00:06:54.433Z,0
2017-12-24T00:07:34.930Z,0
2017-12-24T00:08:15.473Z,0
2017-12-24T00:08:56.676Z,0
2017-12-24T00:09:37.219Z,0
2017-12-24T00:10:17.804Z,0
2017-12-24T00:10:58.307Z,0
2017-12-24T00:11:38.834Z,0
2017-12-24T00:12:19.382Z,0
2017-12-24T00:12:59.970Z,0
2017-12-24T00:13:40.498Z,0
2017-12-24T00:14:21.059Z,0
2017-12-24T00:15:01.609Z,0
2017-12-24T00:15:42.159Z,0
2017-12-24T00:16:22.721Z,0
2017-12-24T00:17:03.270Z,0
2017-12-24T00:17:43.822Z,0
2017-12-24T00:18:24.376Z,0
2017-12-24T00:19:04.931Z,0
2017-12-24T00:19:45.440Z,0
2017-12-24T00:20:25.964Z,0
2017-12-24T00:21:06.495Z,0
2017-12-24T00:21:47.049Z,0
2017-12-24T00:22:27.583Z,0
2017-12-24T00:23:08.127Z,0
2017-12-24T00:23:48.677Z,0
2017-12-24T00:24:29.223Z,0
2017-12-24T00:25:09.782Z,0
2017-12-24T00:25:50.355Z,0
2017-12-24T00:26:30.921Z,0
2017-12-24T00:27:11.580Z,0
2017-12-24T00:27:52.103Z,0
2017-12-24T00:28:32.642Z,0
2017-12-24T00:29:13.211Z,0
2017-12-24T00:29:53.782Z,0
2017-12-24T00:30:34.313Z,0
2017-12-24T00:31:14.833Z,0
2017-12-24T00:31:55.364Z,0
2017-12-24T00:32:36.548Z,0
2017-12-24T00:33:16.543Z,0
2017-12-24T00:33:57.113Z,0
2017-12-24T00:34:37.682Z,0
2017-12-24T00:35:18.246Z,0
2017-12-24T00:35:58.763Z,0
2017-12-24T00:36:39.311Z,0
2017-12-24T00:37:19.892Z,0
2017-12-24T00:38:00.405Z,0
2017-12-24T00:38:40.935Z,0
2017-12-24T00:39:21.476Z,0
2017-12-24T00:40:02.069Z,0
2017-12-24T00:40:42.579Z,0
2017-12-24T00:41:23.091Z,0
2017-12-24T00:42:03.620Z,0
2017-12-24T00:42:44.179Z,0
2017-12-24T00:43:24.772Z,0
2017-12-24T00:44:05.300Z,0
2017-12-24T00:44:45.834Z,0
2017-12-24T00:45:26.386Z,0
2017-12-24T00:46:06.930Z,0
2017-12-24T00:46:47.509Z,0
2017-12-24T00:47:28.033Z,0
2017-12-24T00:48:08.569Z,0
2017-12-24T00:48:49.120Z,0
2017-12-24T00:49:29.654Z,0
2017-12-24T00:50:10.206Z,0
2017-12-24T00:50:50.786Z,0
2017-12-24T00:51:31.319Z,0
2017-12-24T00:52:11.899Z,0
2017-12-24T00:52:52.406Z,0
2017-12-24T00:53:32.966Z,0
2017-12-24T00:54:13.502Z,0
2017-12-24T00:54:54.040Z,0
2017-12-24T00:55:34.586Z,0
2017-12-24T00:56:15.105Z,0
2017-12-24T00:56:55.629Z,0
2017-12-24T00:57:36.193Z,0
2017-12-24T00:58:16.741Z,0
2017-12-24T00:58:57.297Z,0
2017-12-24T00:59:37.862Z,0
2017-12-24T01:00:18.390Z,0
2017-12-24T01:00:58.950Z,0
2017-12-24T01:01:39.482Z,0
2017-12-24T01:02:20.034Z,0
2017-12-24T01:03:00.581Z,0
2017-12-24T01:03:41.126Z,0
2017-12-24T01:04:21.665Z,0
2017-12-24T01:05:02.227Z,0
2017-12-24T01:05:42.767Z,0
2017-12-24T01:06:23.342Z,0
2017-12-24T01:07:03.899Z,0
2017-12-24T01:07:44.456Z,0
2017-12-24T01:08:25.000Z,0
2017-12-24T01:09:05.559Z,0
2017-12-24T01:09:46.125Z,0
2017-12-24T01:10:26.651Z,0
2017-12-24T01:11:07.214Z,0
2017-12-24T01:11:47.746Z,0
2017-12-24T01:12:28.320Z,0
2017-12-24T01:13:08.849Z,0
2017-12-24T01:13:49.383Z,0
2017-12-24T01:14:29.943Z,0
2017-12-24T01:15:10.495Z,0
2017-12-24T01:15:51.029Z,0
2017-12-24T01:16:31.582Z,0
2017-12-24T01:17:12.081Z,0
2017-12-24T01:17:52.616Z,0
2017-12-24T01:18:33.155Z,0
2017-12-24T01:19:13.690Z,0
2017-12-24T01:19:54.220Z,0
2017-12-24T01:20:34.765Z,0
2017-12-24T01:21:15.340Z,0
2017-12-24T01:21:55.873Z,0
2017-12-24T01:22:36.406Z,0
2017-12-24T01:23:16.950Z,0
2017-12-24T01:23:57.504Z,0
2017-12-24T01:24:38.031Z,0
2017-12-24T01:25:18.576Z,0
2017-12-24T01:25:59.130Z,0
2017-12-24T01:26:39.680Z,0
2017-12-24T01:27:20.229Z,0
2017-12-24T01:28:00.778Z,0
2017-12-24T01:28:41.320Z,0
2017-12-24T01:29:21.876Z,0
2017-12-24T01:30:02.435Z,0
2017-12-24T01:30:42.972Z,0
2017-12-24T01:31:23.529Z,0
2017-12-24T01:32:04.027Z,0
2017-12-24T01:32:44.563Z,0
2017-12-24T01:33:25.108Z,0
2017-12-24T01:34:05.626Z,0
2017-12-24T01:34:46.193Z,0
2017-12-24T01:35:26.706Z,0
2017-12-24T01:36:07.256Z,0
2017-12-24T01:36:47.812Z,0
2017-12-24T01:37:28.371Z,0
2017-12-24T01:38:08.894Z,0
2017-12-24T01:38:49.456Z,0
2017-12-24T01:39:29.985Z,0
2017-12-24T01:40:10.532Z,0
2017-12-24T01:40:51.108Z,0
2017-12-24T01:41:31.628Z,0
2017-12-24T01:42:12.164Z,0
2017-12-24T01:42:52.707Z,0
2017-12-24T01:43:33.265Z,0
2017-12-24T01:44:13.814Z,0
2017-12-24T01:44:54.385Z,0
2017-12-24T01:45:34.932Z,0
2017-12-24T01:46:15.491Z,0
2017-12-24T01:46:56.052Z,0
2017-12-24T01:47:36.590Z,0
2017-12-24T01:48:17.113Z,0
2017-12-24T01:48:57.648Z,0
2017-12-24T01:49:38.205Z,0
2017-12-24T01:50:18.762Z,0
2017-12-24T01:50:59.299Z,0
2017-12-24T01:51:39.858Z,0
2017-12-24T01:52:20.409Z,0
2017-12-24T01:53:00.906Z,0
2017-12-24T01:53:41.523Z,0
2017-12-24T01:54:22.064Z,0
2017-12-24T01:55:02.643Z,0
2017-12-24T01:55:43.152Z,0
2017-12-24T01:56:23.713Z,0
2017-12-24T01:57:04.243Z,0
2017-12-24T01:57:44.770Z,0
2017-12-24T01:58:25.316Z,0
2017-12-24T01:59:05.877Z,0
2017-12-24T01:59:46.455Z,0
2017-12-24T02:00:27.000Z,0
2017-12-24T02:01:07.539Z,0
2017-12-24T02:01:48.106Z,0
2017-12-24T02:02:28.637Z,0
2017-12-24T02:03:09.184Z,0
2017-12-24T02:03:49.732Z,0
2017-12-24T02:04:30.281Z,0
2017-12-24T02:05:10.844Z,0
2017-12-24T02:05:51.418Z,0
2017-12-24T02:06:31.958Z,0
2017-12-24T02:07:12.504Z,0
2017-12-24T02:07:53.050Z,0
2017-12-24T02:08:33.599Z,0
2017-12-24T02:09:14.128Z,0
2017-12-24T02:09:54.688Z,0
2017-12-24T02:10:35.264Z,0
2017-12-24T02:11:15.775Z,0
2017-12-24T02:11:56.344Z,0
2017-12-24T02:12:36.986Z,0
2017-12-24T02:13:17.457Z,0
2017-12-24T02:13:58.014Z,0
2017-12-24T02:14:38.558Z,0
2017-12-24T02:15:19.106Z,0
2017-12-24T02:15:59.649Z,0
2017-12-24T02:16:40.184Z,0
2017-12-24T02:17:20.715Z,0
2017-12-24T02:18:01.284Z,0
2017-12-24T02:18:41.837Z,0
2017-12-24T02:19:22.379Z,0
2017-12-24T02:20:02.926Z,0
2017-12-24T02:20:43.442Z,0
2017-12-24T02:21:23.981Z,0
2017-12-24T02:22:04.541Z,0
2017-12-24T02:22:45.055Z,0
2017-12-24T02:23:25.577Z,0
2017-12-24T02:24:06.154Z,0
2017-12-24T02:24:46.688Z,0
2017-12-24T02:25:27.253Z,0
2017-12-24T02:26:07.797Z,0
2017-12-24T02:26:48.323Z,0
2017-12-24T02:27:28.875Z,0
2017-12-24T02:28:09.395Z,0
2017-12-24T02:28:49.914Z,0
2017-12-24T02:29:30.462Z,0
2017-12-24T02:30:11.005Z,0
2017-12-24T02:30:51.534Z,0
2017-12-24T02:31:32.064Z,0
2017-12-24T02:32:12.588Z,0
2017-12-24T02:32:53.140Z,0
2017-12-24T02:33:33.692Z,0
2017-12-24T02:34:14.238Z,0
2017-12-24T02:34:54.786Z,0
2017-12-24T02:35:35.344Z,0
2017-12-24T02:36:15.898Z,0
2017-12-24T02:36:56.490Z,0
2017-12-24T02:37:37.015Z,0
2017-12-24T02:38:17.556Z,0
2017-12-24T02:38:58.153Z,0
2017-12-24T02:39:38.677Z,0
2017-12-24T02:40:19.244Z,0
2017-12-24T02:40:59.783Z,0
2017-12-24T02:41:40.372Z,0
2017-12-24T02:42:20.902Z,0
2017-12-24T02:43:01.453Z,0
2017-12-24T02:43:41.971Z,0
2017-12-24T02:44:22.495Z,0
2017-12-24T02:45:03.047Z,0
2017-12-24T02:45:43.588Z,0
2017-12-24T02:46:24.143Z,0
2017-12-24T02:47:04.671Z,0
2017-12-24T02:47:45.216Z,0
2017-12-24T02:48:25.771Z,0
2017-12-24T02:49:06.337Z,0
2017-12-24T02:49:46.865Z,0
2017-12-24T02:50:27.456Z,0
2017-12-24T02:51:07.987Z,0
2017-12-24T02:51:48.553Z,0
2017-12-24T02:52:29.123Z,0
2017-12-24T02:53:09.598Z,0
2017-12-24T02:53:50.147Z,0
2017-12-24T02:54:30.701Z,0
2017-12-24T02:55:11.258Z,0
2017-12-24T02:55:51.791Z,0
2017-12-24T02:56:32.341Z,0
2017-12-24T02:57:12.899Z,0
2017-12-24T02:57:53.460Z,0
2017-12-24T02:58:33.999Z,0
2017-12-24T02:59:14.566Z,0
2017-12-24T02:59:55.123Z,0
2017-12-24T03:00:35.653Z,0
2017-12-24T03:01:16.161Z,0
2017-12-24T03:01:56.799Z,0
2017-12-24T03:02:37.350Z,0
2017-12-24T03:03:17.903Z,0
2017-12-24T03:03:58.454Z,0
2017-12-24T03:04:38.958Z,0
2017-12-24T03:05:19.503Z,0
2017-12-24T03:06:00.077Z,0
2017-12-24T03:06:40.634Z,0
2017-12-24T03:07:21.187Z,0
2017-12-24T03:08:01.753Z,0
2017-12-24T03:08:42.303Z,0
2017-12-24T03:09:22.854Z,0
2017-12-24T03:10:03.383Z,0
2017-12-24T03:10:43.925Z,0
2017-12-24T03:11:24.452Z,0
2017-12-24T03:12:05.314Z,0
2017-12-24T03:12:45.831Z,0
2017-12-24T03:13:26.370Z,0
2017-12-24T03:14:06.912Z,0
2017-12-24T03:14:47.472Z,0
2017-12-24T03:15:28.000Z,0
2017-12-24T03:16:08.539Z,0
2017-12-24T03:16:49.118Z,0
2017-12-24T03:17:29.622Z,0
2017-12-24T03:18:10.207Z,0
2017-12-24T03:18:50.749Z,0
2017-12-24T03:19:31.304Z,0
2017-12-24T03:20:11.861Z,0
2017-12-24T03:20:52.388Z,0
2017-12-24T03:21:32.941Z,0
2017-12-24T03:22:13.455Z,0
2017-12-24T03:22:54.017Z,0
2017-12-24T03:23:34.535Z,0
2017-12-24T03:24:15.096Z,0
2017-12-24T03:24:55.634Z,0
2017-12-24T03:25:36.165Z,0
2017-12-24T03:26:16.727Z,0
2017-12-24T03:26:57.263Z,0
2017-12-24T03:27:37.774Z,0
2017-12-24T03:28:18.312Z,0
2017-12-24T03:28:58.837Z,0
2017-12-24T03:29:39.446Z,0
2017-12-24T03:30:19.959Z,0
2017-12-24T03:31:00.511Z,0
2017-12-24T03:31:41.054Z,0
2017-12-24T03:32:21.632Z,0
2017-12-24T03:33:02.147Z,0
2017-12-24T03:33:42.702Z,0
2017-12-24T03:34:23.240Z,0
2017-12-24T03:35:03.811Z,0
2017-12-24T03:35:44.351Z,0
2017-12-24T03:36:24.913Z,0
2017-12-24T03:37:05.456Z,0
2017-12-24T03:37:45.968Z,0
2017-12-24T03:38:26.510Z,0
2017-12-24T03:39:07.046Z,0
2017-12-24T03:39:47.585Z,0
2017-12-24T03:40:28.138Z,0
2017-12-24T03:41:08.674Z,0
2017-12-24T03:41:49.218Z,0
2017-12-24T03:42:29.768Z,0
2017-12-24T03:43:10.315Z,0
2017-12-24T03:43:50.894Z,0
2017-12-24T03:44:31.462Z,0
2017-12-24T03:45:11.998Z,0
2017-12-24T03:45:52.557Z,0
2017-12-24T03:46:33.112Z,0
2017-12-24T03:47:13.658Z,0
2017-12-24T03:47:54.208Z,0
2017-12-24T03:48:34.754Z,0
2017-12-24T03:49:15.315Z,0
2017-12-24T03:49:55.846Z,0
2017-12-24T03:50:36.414Z,0
2017-12-24T03:51:16.948Z,0
2017-12-24T03:51:57.465Z,0
2017-12-24T03:52:37.972Z,0
2017-12-24T03:53:18.556Z,0
2017-12-24T03:53:59.100Z,0
2017-12-24T03:54:39.644Z,0
2017-12-24T03:55:20.179Z,0
2017-12-24T03:56:00.757Z,0
2017-12-24T03:56:41.304Z,0
2017-12-24T03:57:21.863Z,0
2017-12-24T03:58:02.421Z,0
2017-12-24T03:58:42.988Z,0
2017-12-24T03:59:23.511Z,0
2017-12-24T04:00:04.084Z,0
2017-12-24T04:00:44.580Z,0
2017-12-24T04:01:25.121Z,0
2017-12-24T04:02:05.686Z,0
2017-12-24T04:02:46.268Z,0
2017-12-24T04:03:27.697Z,0
2017-12-24T04:04:08.233Z,0
2017-12-24T04:04:48.814Z,0
2017-12-24T04:05:29.346Z,0
2017-12-24T04:06:09.902Z,0
2017-12-24T04:06:50.418Z,0
2017-12-24T04:07:30.973Z,0
2017-12-24T04:08:11.521Z,0
2017-12-24T04:08:52.069Z,0
2017-12-24T04:09:32.641Z,0
2017-12-24T04:10:13.177Z,0
2017-12-24T04:10:53.750Z,0
2017-12-24T04:11:34.241Z,0
2017-12-24T04:12:14.817Z,0
2017-12-24T04:12:55.350Z,0
2017-12-24T04:13:35.902Z,0
2017-12-24T04:14:16.454Z,0
2017-12-24T04:14:56.996Z,0
2017-12-24T04:15:37.522Z,0
2017-12-24T04:16:18.077Z,0
2017-12-24T04:16:58.572Z,0
2017-12-24T04:17:39.105Z,0
2017-12-24T04:18:19.618Z,0
2017-12-24T04:19:00.156Z,0
2017-12-24T04:19:40.702Z,0
2017-12-24T04:20:21.227Z,0
2017-12-24T04:21:01.780Z,0
2017-12-24T04:21:42.319Z,0
2017-12-24T04:22:22.873Z,0
2017-12-24T04:23:03.427Z,0
2017-12-24T04:23:43.968Z,0
2017-12-24T04:24:24.538Z,0
2017-12-24T04:25:05.080Z,0
2017-12-24T04:25:45.622Z,0
2017-12-24T04:26:26.169Z,0
2017-12-24T04:27:06.741Z,0
2017-12-24T04:27:47.279Z,0
2017-12-24T04:28:27.829Z,0
2017-12-24T04:29:08.397Z,0
2017-12-24T04:29:48.901Z,0
2017-12-24T04:30:29.437Z,0
2017-12-24T04:31:09.955Z,0
2017-12-24T04:31:50.502Z,0
2017-12-24T04:32:31.047Z,0
2017-12-24T04:33:11.579Z,0
2017-12-24T04:33:52.098Z,0
2017-12-24T04:34:32.647Z,0
2017-12-24T04:35:13.183Z,0
2017-12-24T04:35:53.728Z,0
2017-12-24T04:36:34.289Z,0
2017-12-24T04:37:14.780Z,0
2017-12-24T04:37:55.381Z,0
2017-12-24T04:38:35.930Z,0
2017-12-24T04:39:16.473Z,0
2017-12-24T04:39:57.003Z,0
2017-12-24T04:40:37.571Z,0
2017-12-24T04:41:18.136Z,0
2017-12-24T04:41:58.676Z,0
2017-12-24T04:42:39.219Z,0
2017-12-24T04:43:19.778Z,0
2017-12-24T04:44:00.340Z,0
2017-12-24T04:44:40.990Z,0
2017-12-24T04:45:21.529Z,0
2017-12-24T04:46:02.070Z,0
2017-12-24T04:46:42.642Z,0
2017-12-24T04:47:23.184Z,0
2017-12-24T04:48:03.705Z,0
2017-12-24T04:48:44.248Z,0
2017-12-24T04:49:24.768Z,0
2017-12-24T04:50:05.329Z,0
2017-12-24T04:50:45.846Z,0
2017-12-24T04:51:26.391Z,0
2017-12-24T04:52:06.947Z,0
2017-12-24T04:52:47.500Z,0
2017-12-24T04:53:28.041Z,0
2017-12-24T04:54:08.570Z,0
2017-12-24T04:54:49.121Z,0
2017-12-24T04:55:29.672Z,0
2017-12-24T04:56:10.204Z,0
2017-12-24T04:56:50.762Z,0
2017-12-24T04:57:31.310Z,0
2017-12-24T04:58:11.851Z,0
2017-12-24T04:58:52.403Z,0
2017-12-24T04:59:32.940Z,0
2017-12-24T05:00:13.532Z,0
2017-12-24T05:00:54.030Z,0
2017-12-24T05:01:34.572Z,0
2017-12-24T05:02:15.105Z,0
2017-12-24T05:02:55.654Z,0
2017-12-24T05:03:36.207Z,0
2017-12-24T05:04:16.740Z,0
2017-12-24T05:04:57.301Z,0
2017-12-24T05:05:37.809Z,0
2017-12-24T05:06:18.360Z,0
2017-12-24T05:06:58.912Z,0
2017-12-24T05:07:39.449Z,0
2017-12-24T05:08:19.963Z,0
2017-12-24T05:09:00.506Z,0
2017-12-24T05:09:41.029Z,0
2017-12-24T05:10:21.592Z,0
2017-12-24T05:11:02.115Z,0
2017-12-24T05:11:42.641Z,0
2017-12-24T05:12:23.178Z,0
2017-12-24T05:13:03.729Z,0
2017-12-24T05:13:44.290Z,0
2017-12-24T05:14:24.877Z,0
2017-12-24T05:15:05.407Z,0
2017-12-24T05:15:45.963Z,0
2017-12-24T05:16:26.608Z,0
2017-12-24T05:17:07.131Z,0
2017-12-24T05:17:47.654Z,0
2017-12-24T05:18:28.184Z,0
2017-12-24T05:19:08.760Z,0
2017-12-24T05:19:49.284Z,0
2017-12-24T05:20:29.837Z,0
2017-12-24T05:21:10.387Z,0
2017-12-24T05:21:50.953Z,0
2017-12-24T05:22:31.468Z,0
2017-12-24T05:23:12.011Z,0
2017-12-24T05:23:52.556Z,0
2017-12-24T05:24:33.121Z,0
2017-12-24T05:25:13.683Z,0
2017-12-24T05:25:54.240Z,0
2017-12-24T05:26:34.832Z,0
2017-12-24T05:27:15.382Z,0
2017-12-24T05:27:55.924Z,0
2017-12-24T05:28:36.470Z,0
2017-12-24T05:29:16.992Z,0
2017-12-24T05:29:57.554Z,0
2017-12-24T05:30:38.082Z,0
2017-12-24T05:31:18.629Z,0
2017-12-24T05:31:59.184Z,0
2017-12-24T05:32:39.712Z,0
2017-12-24T05:33:20.280Z,0
2017-12-24T05:34:00.793Z,0
2017-12-24T05:34:41.319Z,0
2017-12-24T05:35:21.884Z,0
2017-12-24T05:36:02.420Z,0
2017-12-24T05:36:43.003Z,0
2017-12-24T05:37:23.549Z,0
2017-12-24T05:38:04.094Z,0
2017-12-24T05:38:44.627Z,0
2017-12-24T05:39:25.167Z,0
2017-12-24T05:40:05.699Z,0
2017-12-24T05:40:46.220Z,0
2017-12-24T05:41:26.759Z,0
2017-12-24T05:42:07.329Z,0
2017-12-24T05:42:47.821Z,0
2017-12-24T05:43:28.354Z,0
2017-12-24T05:44:08.928Z,0
2017-12-24T05:44:49.439Z,0
2017-12-24T05:45:29.995Z,0
2017-12-24T05:46:10.557Z,0
2017-12-24T05:46:51.122Z,0
2017-12-24T05:47:31.681Z,0
2017-12-24T05:48:12.234Z,0
2017-12-24T05:48:52.757Z,0
2017-12-24T05:49:33.413Z,0
2017-12-24T05:50:14.514Z,0
2017-12-24T05:50:55.054Z,0
2017-12-24T05:51:35.597Z,0
2017-12-24T05:52:16.145Z,0
2017-12-24T05:52:56.670Z,0
2017-12-24T05:53:37.221Z,0
2017-12-24T05:54:17.759Z,0
2017-12-24T05:54:58.340Z,0
2017-12-24T05:55:38.854Z,0
2017-12-24T05:56:19.380Z,0
2017-12-24T05:56:59.916Z,0
2017-12-24T05:57:40.454Z,0
2017-12-24T05:58:20.995Z,0
2017-12-24T05:59:01.551Z,0
2017-12-24T05:59:42.095Z,0
2017-12-24T06:00:22.612Z,0
2017-12-24T06:01:03.191Z,0
2017-12-24T06:01:43.727Z,0
2017-12-24T06:02:24.276Z,0
2017-12-24T06:03:04.835Z,0
2017-12-24T06:03:45.377Z,0
2017-12-24T06:04:25.919Z,0
2017-12-24T06:05:06.465Z,0
2017-12-24T06:05:47.019Z,0
2017-12-24T06:06:27.564Z,0
2017-12-24T06:07:08.103Z,0
2017-12-24T06:07:48.640Z,0
2017-12-24T06:08:29.211Z,0
2017-12-24T06:09:09.745Z,0
2017-12-24T06:09:50.304Z,0
2017-12-24T06:10:30.842Z,0
2017-12-24T06:11:11.366Z,0
2017-12-24T06:11:51.966Z,0
2017-12-24T06:12:32.504Z,0
2017-12-24T06:13:13.057Z,0
2017-12-24T06:13:53.578Z,0
2017-12-24T06:14:34.644Z,0
2017-12-24T06:15:14.660Z,0
2017-12-24T06:15:56.142Z,0
2017-12-24T06:16:35.728Z,0
2017-12-24T06:17:16.255Z,0
2017-12-24T06:17:56.763Z,0
2017-12-24T06:18:37.364Z,0
2017-12-24T06:19:17.913Z,0
2017-12-24T06:19:58.460Z,0
2017-12-24T06:20:39.055Z,0
2017-12-24T06:21:19.588Z,0
2017-12-24T06:22:00.101Z,0
2017-12-24T06:22:40.670Z,0
2017-12-24T06:23:21.173Z,0
2017-12-24T06:24:01.695Z,0
2017-12-24T06:24:42.213Z,0
2017-12-24T06:25:22.755Z,0
2017-12-24T06:26:03.300Z,0
2017-12-24T06:26:43.829Z,0
2017-12-24T06:27:24.364Z,0
2017-12-24T06:28:04.897Z,0
2017-12-24T06:28:45.451Z,0
2017-12-24T06:29:25.969Z,0
2017-12-24T06:30:06.551Z,0
2017-12-24T06:30:47.117Z,0
2017-12-24T06:31:27.669Z,0
2017-12-24T06:32:08.186Z,0
2017-12-24T06:32:48.734Z,0
2017-12-24T06:33:29.254Z,0
2017-12-24T06:34:09.797Z,0
2017-12-24T06:34:50.365Z,0
2017-12-24T06:35:30.911Z,0
2017-12-24T06:36:11.447Z,0
2017-12-24T06:36:52.002Z,0
2017-12-24T06:37:32.568Z,0
2017-12-24T06:38:13.122Z,0
2017-12-24T06:38:53.614Z,0
2017-12-24T06:39:34.172Z,0
2017-12-24T06:40:14.681Z,0
2017-12-24T06:40:55.228Z,0
2017-12-24T06:41:35.781Z,0
2017-12-24T06:42:16.344Z,0
2017-12-24T06:42:56.905Z,0
2017-12-24T06:43:37.410Z,0
2017-12-24T06:44:17.997Z,0
2017-12-24T06:44:58.556Z,0
2017-12-24T06:45:39.098Z,0
2017-12-24T06:46:19.616Z,0
2017-12-24T06:47:00.148Z,0
2017-12-24T06:47:40.699Z,0
2017-12-24T06:48:21.235Z,0
2017-12-24T06:49:01.798Z,0
2017-12-24T06:49:42.340Z,0
2017-12-24T06:50:23.006Z,0
2017-12-24T06:51:03.540Z,0
2017-12-24T06:51:44.113Z,0
2017-12-24T06:52:24.624Z,0
2017-12-24T06:53:05.182Z,4
2017-12-24T06:53:45.723Z,0
2017-12-24T06:54:26.263Z,0
2017-12-24T06:55:06.820Z,0
2017-12-24T06:55:47.366Z,0
2017-12-24T06:56:27.929Z,4
2017-12-24T06:57:09.159Z,4
2017-12-24T06:57:48.968Z,4
2017-12-24T06:58:29.530Z,4
2017-12-24T06:59:10.101Z,4
2017-12-24T06:59:50.671Z,8
2017-12-24T07:00:31.205Z,4
2017-12-24T07:01:11.743Z,8
2017-12-24T07:01:52.285Z,8
2017-12-24T07:02:32.849Z,8
2017-12-24T07:03:13.371Z,8
2017-12-24T07:03:53.911Z,8
2017-12-24T07:04:34.467Z,8
2017-12-24T07:05:14.984Z,12
2017-12-24T07:05:55.538Z,16
2017-12-24T07:06:36.122Z,16
2017-12-24T07:07:16.666Z,16
2017-12-24T07:07:57.210Z,20
2017-12-24T07:08:37.756Z,24
2017-12-24T07:09:18.295Z,24
2017-12-24T07:09:58.843Z,20
2017-12-24T07:10:39.432Z,24
2017-12-24T07:11:19.977Z,24
2017-12-24T07:12:00.537Z,24
2017-12-24T07:12:41.051Z,24
2017-12-24T07:13:21.569Z,28
2017-12-24T07:14:02.096Z,32
2017-12-24T07:14:42.635Z,32
2017-12-24T07:15:23.184Z,32
2017-12-24T07:16:03.705Z,32
2017-12-24T07:16:44.297Z,32
2017-12-24T07:17:24.834Z,36
2017-12-24T07:18:05.416Z,36
2017-12-24T07:18:45.926Z,44
2017-12-24T07:19:26.441Z,44
2017-12-24T07:20:06.997Z,44
2017-12-24T07:20:47.544Z,44
2017-12-24T07:21:28.086Z,40
2017-12-24T07:22:08.627Z,48
2017-12-24T07:22:49.147Z,52
2017-12-24T07:23:29.663Z,52
2017-12-24T07:24:10.257Z,52
2017-12-24T07:24:50.790Z,52
2017-12-24T07:25:31.361Z,56
2017-12-24T07:26:11.865Z,64
2017-12-24T07:26:52.401Z,72
2017-12-24T07:27:32.935Z,72
2017-12-24T07:28:13.465Z,76
2017-12-24T07:28:54.008Z,88
2017-12-24T07:29:34.556Z,100
2017-12-24T07:30:15.094Z,116
2017-12-24T07:30:55.649Z,132
2017-12-24T07:31:36.179Z,136
2017-12-24T07:32:16.741Z,144
2017-12-24T07:32:57.275Z,156
2017-12-24T07:33:37.803Z,168
2017-12-24T07:34:18.352Z,184
2017-12-24T07:34:58.899Z,212
2017-12-24T07:35:39.441Z,240
2017-12-24T07:36:19.969Z,276
2017-12-24T07:37:00.526Z,308
2017-12-24T07:37:41.059Z,340
2017-12-24T07:38:21.595Z,372
2017-12-24T07:39:02.104Z,392
2017-12-24T07:39:42.642Z,408
2017-12-24T07:40:23.167Z,424
2017-12-24T07:41:03.742Z,448
2017-12-24T07:41:44.308Z,484
2017-12-24T07:42:24.866Z,512
2017-12-24T07:43:05.414Z,512
2017-12-24T07:43:45.958Z,524
2017-12-24T07:44:26.543Z,528
2017-12-24T07:45:07.078Z,532
2017-12-24T07:45:47.615Z,552
2017-12-24T07:46:28.158Z,536
2017-12-24T07:47:08.718Z,544
2017-12-24T07:47:49.321Z,560
2017-12-24T07:48:29.873Z,572
2017-12-24T07:49:10.431Z,584
2017-12-24T07:49:51.446Z,600
2017-12-24T07:50:32.005Z,620
2017-12-24T07:51:12.539Z,632
2017-12-24T07:51:53.077Z,644
2017-12-24T07:52:33.607Z,660
2017-12-24T07:53:14.158Z,680
2017-12-24T07:53:54.677Z,680
2017-12-24T07:54:35.212Z,684
2017-12-24T07:55:15.747Z,688
2017-12-24T07:55:56.290Z,700
2017-12-24T07:56:36.837Z,708
2017-12-24T07:57:17.377Z,708
2017-12-24T07:57:57.946Z,716
2017-12-24T07:58:38.453Z,724
2017-12-24T07:59:19.001Z,712
2017-12-24T07:59:59.549Z,696
2017-12-24T08:00:40.066Z,668
2017-12-24T08:01:20.610Z,680
2017-12-24T08:02:01.176Z,636
2017-12-24T08:02:41.746Z,548
2017-12-24T08:03:22.289Z,520
2017-12-24T08:04:02.869Z,508
2017-12-24T08:04:43.372Z,504
2017-12-24T08:05:23.943Z,524
2017-12-24T08:06:04.479Z,540
2017-12-24T08:06:45.033Z,580
2017-12-24T08:07:25.545Z,600
2017-12-24T08:08:06.162Z,604
2017-12-24T08:08:46.735Z,632
2017-12-24T08:09:27.288Z,664
2017-12-24T08:10:07.824Z,680
2017-12-24T08:10:48.348Z,680
2017-12-24T08:11:28.866Z,672
2017-12-24T08:12:09.420Z,624
2017-12-24T08:12:49.982Z,576
2017-12-24T08:13:30.557Z,552
2017-12-24T08:14:11.092Z,528
2017-12-24T08:14:51.641Z,496
2017-12-24T08:15:32.240Z,484
2017-12-24T08:16:12.741Z,476
2017-12-24T08:16:53.301Z,428
2017-12-24T08:17:33.847Z,444
2017-12-24T08:18:14.406Z,456
2017-12-24T08:18:54.928Z,432
2017-12-24T08:19:35.475Z,396
2017-12-24T08:20:16.008Z,416
2017-12-24T08:20:56.578Z,432
2017-12-24T08:21:37.097Z,388
2017-12-24T08:22:17.652Z,396
2017-12-24T08:22:58.226Z,436
2017-12-24T08:23:38.746Z,460
2017-12-24T08:24:19.311Z,420
2017-12-24T08:24:59.844Z,392
2017-12-24T08:25:40.369Z,396
2017-12-24T08:26:20.953Z,380
2017-12-24T08:27:01.447Z,392
2017-12-24T08:27:41.947Z,388
2017-12-24T08:28:22.507Z,368
2017-12-24T08:29:03.071Z,356
2017-12-24T08:29:43.634Z,368
2017-12-24T08:30:24.175Z,364
2017-12-24T08:31:04.730Z,352
2017-12-24T08:31:45.268Z,368
2017-12-24T08:32:25.794Z,368
2017-12-24T08:33:06.346Z,372
2017-12-24T08:33:46.899Z,364
2017-12-24T08:34:27.455Z,376
2017-12-24T08:35:08.019Z,396
2017-12-24T08:35:48.570Z,372
2017-12-24T08:36:29.091Z,380
2017-12-24T08:37:09.656Z,364
2017-12-24T08:37:50.206Z,380
2017-12-24T08:38:30.743Z,468
2017-12-24T08:39:11.298Z,524
2017-12-24T08:39:51.851Z,564
2017-12-24T08:40:32.368Z,592
2017-12-24T08:41:12.888Z,640
2017-12-24T08:41:53.432Z,728
2017-12-24T08:42:34.011Z,864
2017-12-24T08:43:14.539Z,1016
2017-12-24T08:43:55.059Z,1188
2017-12-24T08:44:35.613Z,1248
2017-12-24T08:45:16.183Z,1240
2017-12-24T08:45:56.745Z,1264
2017-12-24T08:46:37.294Z,1352
2017-12-24T08:47:17.833Z,1392
2017-12-24T08:47:58.383Z,1380
2017-12-24T08:48:38.976Z,1368
2017-12-24T08:49:19.511Z,1296
2017-12-24T08:50:00.054Z,1248
2017-12-24T08:50:40.620Z,1248
2017-12-24T08:51:21.167Z,1260
2017-12-24T08:52:01.682Z,1272
2017-12-24T08:52:42.272Z,1268
2017-12-24T08:53:22.809Z,1236
2017-12-24T08:54:03.368Z,1204
2017-12-24T08:54:43.916Z,1160
2017-12-24T08:55:24.474Z,1144
2017-12-24T08:56:05.010Z,1144
2017-12-24T08:56:45.563Z,1144
2017-12-24T08:57:26.077Z,1156
2017-12-24T08:58:06.614Z,1188
2017-12-24T08:58:47.163Z,1216
2017-12-24T08:59:27.694Z,1232
2017-12-24T09:00:08.243Z,1228
2017-12-24T09:00:48.800Z,1260
2017-12-24T09:01:29.363Z,1324
2017-12-24T09:02:09.901Z,1332
2017-12-24T09:02:50.456Z,1332
2017-12-24T09:03:31.019Z,1332
2017-12-24T09:04:11.549Z,1328
2017-12-24T09:04:52.116Z,1284
2017-12-24T09:05:32.619Z,1228
2017-12-24T09:06:13.158Z,1192
2017-12-24T09:06:53.704Z,1160
2017-12-24T09:07:34.310Z,1116
2017-12-24T09:08:14.939Z,1160
2017-12-24T09:08:55.440Z,1208
2017-12-24T09:09:35.961Z,1184
2017-12-24T09:10:16.529Z,1144
2017-12-24T09:10:57.068Z,1144
2017-12-24T09:11:37.601Z,1204
2017-12-24T09:12:18.137Z,1224
2017-12-24T09:12:58.689Z,1216
2017-12-24T09:13:39.236Z,1200
2017-12-24T09:14:19.745Z,1200
2017-12-24T09:15:00.268Z,1200
2017-12-24T09:15:40.823Z,1204
2017-12-24T09:16:21.378Z,1180
2017-12-24T09:17:01.937Z,1176
2017-12-24T09:17:42.513Z,1160
2017-12-24T09:18:23.118Z,1144
2017-12-24T09:19:03.651Z,1144
2017-12-24T09:19:44.182Z,1096
2017-12-24T09:20:24.739Z,1064
2017-12-24T09:21:05.267Z,1064
2017-12-24T09:21:45.815Z,1064
2017-12-24T09:22:26.350Z,1044
2017-12-24T09:23:06.905Z,1024
2017-12-24T09:23:47.454Z,1040
2017-12-24T09:24:28.014Z,1052
2017-12-24T09:25:08.555Z,1088
2017-12-24T09:25:49.120Z,1080
2017-12-24T09:26:29.675Z,1088
2017-12-24T09:27:10.206Z,1080
2017-12-24T09:27:50.775Z,1040
2017-12-24T09:28:31.341Z,1052
2017-12-24T09:29:11.887Z,1024
2017-12-24T09:29:52.463Z,1008
2017-12-24T09:30:32.996Z,1024
2017-12-24T09:31:13.531Z,1036
2017-12-24T09:31:54.052Z,1012
2017-12-24T09:32:34.635Z,892
2017-12-24T09:33:15.183Z,864
2017-12-24T09:33:55.741Z,928
2017-12-24T09:34:36.302Z,992
2017-12-24T09:35:16.829Z,960
2017-12-24T09:35:57.399Z,912
2017-12-24T09:36:37.951Z,920
2017-12-24T09:37:18.523Z,924
2017-12-24T09:37:59.043Z,924
2017-12-24T09:38:39.605Z,868
2017-12-24T09:39:20.118Z,876
2017-12-24T09:40:00.634Z,848
2017-12-24T09:40:41.252Z,864
2017-12-24T09:41:21.789Z,816
2017-12-24T09:42:02.339Z,848
2017-12-24T09:42:42.872Z,768
2017-12-24T09:43:23.404Z,860
2017-12-24T09:44:03.946Z,900
2017-12-24T09:44:44.529Z,816
2017-12-24T09:45:25.084Z,788
2017-12-24T09:46:05.638Z,800
2017-12-24T09:46:46.215Z,836